Estación Meteorológica Peña el Pijo (Robertgarden) [ 07/24/17 22:43:54 CEST ]

Fecha Hora Presion(HPa) Temp (°C) Humedad % Rocio (°C) Viento ( m/s) Direccion Lluvia 1Hora(mm) Lluvia 24H(mm) LLuvia Total(mm)
2017-May-10 01:11:04 1001.600 13.6 61 6.2         1390.83
2017-May-10 02:05:40 151.500 13.1 56 4.5         1390.83
2017-May-10 03:02:41 1000.700 13.6 56 5.0 2.4 NNW     1390.83
2017-May-10 04:05:11 1000.300 13.1 60 5.5         1390.83
2017-May-10 05:01:56 1000.300 12.9 65 6.4         1390.83
2017-May-10 06:01:49 999.600 13.1 66 6.9         1390.83
2017-May-10 07:01:39 999.700 12.5 67 6.5         1390.83
2017-May-10 08:01:50 999.800 13.4 66 7.1         1390.83
2017-May-10 09:01:44 999.400 16.3 56 7.5         1390.83
2017-May-10 10:01:48 999.600 17.8 52 7.8         1390.83
2017-May-10 11:01:32 999.600 18.1 52 8.0 0.4 NNW     1390.83
2017-May-10 12:01:39 999.200 23.8 40 9.4         1390.83
2017-May-10 13:01:36 998.700 22.2 43 8.9         1390.83
2017-May-10 14:01:53 998.000 21.6 44 8.8         1390.83
2017-May-10 15:01:37 997.500 25.2 34 8.1 1.4 W     1390.83
2017-May-10 16:01:31 997.100 23.8 34 6.9         1390.83
2017-May-10 17:01:41 996.600 23.3 39 8.5         1390.83
2017-May-10 18:01:54 996.500 23.3 38 8.1         1390.83
2017-May-10 19:01:47 996.600 21.8 44 8.9         1390.83
2017-May-10 20:02:07 996.500 18.9 54 9.4         1390.83
2017-May-10 21:01:44 996.700 17.3 57 8.7         1390.83
2017-May-10 22:01:56 996.600 15.6 62 8.4         1390.83
2017-May-10 23:01:58 996.700 14.1 66 7.8         1390.83

Temperatura Máxima:25°    Temperatura Mínima:12°
Presión Máxima:1001.600 Hpa    Presión Mínima:151.500 Hpa


Volver